createdAt,value
2018-07-20T00:01:17.944Z,6.27
2018-07-20T00:03:46.240Z,7.40
2018-07-20T00:06:15.120Z,7.70
2018-07-20T00:08:43.395Z,7.70
2018-07-20T00:11:11.793Z,7.97
2018-07-20T00:13:40.003Z,8.23
2018-07-20T00:16:08.208Z,7.23
2018-07-20T00:18:36.491Z,7.97
2018-07-20T00:21:04.570Z,8.30
2018-07-20T00:23:32.813Z,8.77
2018-07-20T00:26:01.106Z,8.50
2018-07-20T00:28:29.840Z,9.63
2018-07-20T00:30:58.108Z,9.17
2018-07-20T00:33:26.410Z,9.90
2018-07-20T00:35:54.686Z,8.07
2018-07-20T00:38:22.964Z,8.37
2018-07-20T00:40:52.184Z,8.10
2018-07-20T00:43:20.465Z,7.47
2018-07-20T00:45:48.705Z,6.00
2018-07-20T00:48:17.066Z,5.33
2018-07-20T00:50:45.362Z,5.67
2018-07-20T00:53:13.673Z,4.83
2018-07-20T00:55:42.658Z,5.20
2018-07-20T00:58:10.932Z,4.97
2018-07-20T01:00:39.245Z,5.37
2018-07-20T01:03:07.484Z,5.13
2018-07-20T01:05:35.765Z,5.10
2018-07-20T01:08:03.999Z,5.60
2018-07-20T01:10:32.247Z,5.63
2018-07-20T01:13:00.496Z,5.47
2018-07-20T01:15:28.777Z,5.97
2018-07-20T01:17:57.026Z,6.43
2018-07-20T01:20:25.283Z,5.07
2018-07-20T01:22:53.588Z,5.57
2018-07-20T01:25:21.889Z,6.27
2018-07-20T01:27:49.862Z,5.60
2018-07-20T01:30:18.139Z,6.40
2018-07-20T01:32:46.415Z,6.53
2018-07-20T01:35:14.682Z,6.53
2018-07-20T01:37:42.946Z,6.50
2018-07-20T01:40:11.234Z,6.07
2018-07-20T01:42:39.508Z,6.70
2018-07-20T01:45:07.480Z,6.87
2018-07-20T01:47:35.825Z,6.27
2018-07-20T01:50:04.674Z,6.30
2018-07-20T01:52:32.990Z,6.40
2018-07-20T01:55:01.291Z,6.30
2018-07-20T01:57:29.615Z,6.80
2018-07-20T01:59:57.848Z,6.53
2018-07-20T02:02:26.096Z,6.63
2018-07-20T02:04:54.352Z,7.30
2018-07-20T02:07:22.601Z,6.77
2018-07-20T02:09:50.867Z,6.07
2018-07-20T02:12:19.137Z,6.50
2018-07-20T02:14:47.426Z,6.23
2018-07-20T02:20:06.200Z,5.77
2018-07-20T02:22:34.414Z,7.77
2018-07-20T02:25:02.724Z,7.67
2018-07-20T02:27:31.124Z,7.50
2018-07-20T02:29:59.363Z,8.20
2018-07-20T02:32:27.611Z,7.07
2018-07-20T02:34:55.953Z,6.70
2018-07-20T02:37:24.231Z,6.37
2018-07-20T02:39:52.513Z,6.20
2018-07-20T02:42:20.815Z,6.43
2018-07-20T02:44:49.084Z,6.50
2018-07-20T02:47:17.842Z,6.77
2018-07-20T02:49:46.098Z,7.63
2018-07-20T02:52:14.147Z,8.07
2018-07-20T02:54:42.431Z,7.37
2018-07-20T02:57:10.787Z,7.10
2018-07-20T02:59:39.030Z,7.17
2018-07-20T03:02:07.274Z,6.93
2018-07-20T03:04:35.580Z,7.03
2018-07-20T03:07:03.835Z,6.73
2018-07-20T03:09:32.116Z,7.37
2018-07-20T03:12:00.129Z,6.43
2018-07-20T03:14:28.455Z,6.17
2018-07-20T03:16:56.731Z,6.50
2018-07-20T03:19:25.000Z,6.20
2018-07-20T03:21:53.348Z,6.23
2018-07-20T03:24:21.649Z,6.47
2018-07-20T03:26:50.194Z,5.40
2018-07-20T03:29:18.452Z,6.93
2018-07-20T03:31:46.760Z,6.23
2018-07-20T03:34:15.019Z,6.33
2018-07-20T03:36:43.291Z,7.10
2018-07-20T03:39:11.687Z,6.47
2018-07-20T03:41:39.892Z,6.20
2018-07-20T03:44:08.610Z,6.00
2018-07-20T03:46:37.231Z,8.97
2018-07-20T03:49:05.737Z,11.40
2018-07-20T03:51:33.984Z,10.87
2018-07-20T03:54:02.258Z,8.60
2018-07-20T03:56:30.530Z,7.67
2018-07-20T03:58:58.816Z,7.27
2018-07-20T04:01:27.093Z,8.07
2018-07-20T04:03:55.378Z,8.33
2018-07-20T04:06:23.623Z,6.87
2018-07-20T04:08:52.043Z,7.40
2018-07-20T04:11:20.277Z,7.30
2018-07-20T04:13:48.514Z,7.30
2018-07-20T04:16:16.845Z,7.80
2018-07-20T04:18:45.104Z,7.50
2018-07-20T04:21:13.360Z,6.73
2018-07-20T04:23:41.612Z,6.30
2018-07-20T04:26:09.910Z,6.33
2018-07-20T04:28:37.953Z,6.43
2018-07-20T04:31:06.766Z,7.17
2018-07-20T04:33:35.019Z,7.30
2018-07-20T04:36:03.344Z,8.47
2018-07-20T04:38:31.654Z,8.67
2018-07-20T04:40:59.927Z,8.30
2018-07-20T04:43:28.181Z,7.90
2018-07-20T04:45:56.446Z,8.33
2018-07-20T04:48:24.735Z,8.37
2018-07-20T04:50:53.006Z,11.27
2018-07-20T04:53:21.287Z,9.10
2018-07-20T04:55:49.539Z,6.47
2018-07-20T04:58:17.827Z,6.67
2018-07-20T05:00:46.095Z,6.60
2018-07-20T05:03:14.454Z,5.50
2018-07-20T05:05:42.778Z,6.00
2018-07-20T05:08:11.022Z,5.90
2018-07-20T05:10:39.283Z,6.20
2018-07-20T05:13:07.574Z,6.40
2018-07-20T05:15:35.820Z,5.60
2018-07-20T05:18:04.117Z,6.23
2018-07-20T05:20:32.397Z,5.73
2018-07-20T05:23:00.732Z,6.10
2018-07-20T05:25:28.996Z,5.83
2018-07-20T05:27:57.305Z,5.90
2018-07-20T05:30:25.627Z,5.60
2018-07-20T05:32:53.975Z,6.73
2018-07-20T05:35:22.262Z,6.90
2018-07-20T05:37:50.529Z,6.77
2018-07-20T05:40:18.538Z,6.77
2018-07-20T05:42:46.834Z,6.27
2018-07-20T05:45:15.107Z,7.23
2018-07-20T05:47:43.408Z,6.93
2018-07-20T05:50:11.669Z,6.87
2018-07-20T05:52:39.996Z,6.77
2018-07-20T05:55:08.324Z,6.83
2018-07-20T05:57:36.611Z,7.43
2018-07-20T06:00:05.508Z,7.53
2018-07-20T06:02:33.732Z,7.70
2018-07-20T06:05:02.069Z,7.90
2018-07-20T06:07:30.368Z,7.60
2018-07-20T06:09:58.632Z,6.53
2018-07-20T06:12:26.911Z,6.50
2018-07-20T06:14:55.156Z,7.53
2018-07-20T06:17:23.471Z,6.70
2018-07-20T06:19:51.802Z,6.87
2018-07-20T06:22:20.082Z,6.97
2018-07-20T06:24:48.344Z,7.13
2018-07-20T06:27:16.566Z,8.00
2018-07-20T06:29:45.818Z,7.47
2018-07-20T06:32:14.152Z,8.30
2018-07-20T06:34:42.390Z,7.90
2018-07-20T06:37:10.663Z,7.23
2018-07-20T06:39:38.961Z,7.87
2018-07-20T06:42:07.211Z,9.13
2018-07-20T06:44:35.560Z,8.53
2018-07-20T06:47:03.799Z,9.13
2018-07-20T06:49:32.092Z,9.53
2018-07-20T06:52:00.356Z,8.80
2018-07-20T06:54:28.647Z,8.93
2018-07-20T06:56:56.948Z,8.67
2018-07-20T06:59:25.184Z,8.13
2018-07-20T07:01:53.464Z,10.48
2018-07-20T07:04:21.802Z,9.25
2018-07-20T07:06:50.072Z,9.45
2018-07-20T07:09:18.351Z,9.90
2018-07-20T07:11:46.680Z,9.53
2018-07-20T07:14:14.927Z,9.40
2018-07-20T07:16:43.203Z,8.78
2018-07-20T07:19:11.505Z,9.83
2018-07-20T07:21:39.759Z,9.95
2018-07-20T07:24:07.789Z,9.68
2018-07-20T07:26:36.021Z,8.55
2018-07-20T07:29:04.360Z,9.15
2018-07-20T07:31:32.624Z,8.35
2018-07-20T07:34:00.866Z,8.53
2018-07-20T07:36:29.251Z,8.68
2018-07-20T07:38:57.515Z,8.80
2018-07-20T07:41:25.818Z,9.23
2018-07-20T07:43:54.259Z,8.88
2018-07-20T07:46:22.619Z,8.63
2018-07-20T07:48:50.790Z,9.43
2018-07-20T07:51:19.084Z,9.18
2018-07-20T07:53:47.331Z,8.98
2018-07-20T07:56:15.598Z,10.38
2018-07-20T07:58:44.491Z,9.65
2018-07-20T08:01:12.758Z,10.00
2018-07-20T08:03:41.022Z,8.30
2018-07-20T08:06:09.289Z,9.23
2018-07-20T08:08:37.560Z,9.33
2018-07-20T08:11:06.091Z,8.65
2018-07-20T08:13:34.127Z,10.38
2018-07-20T08:16:02.422Z,8.85
2018-07-20T08:18:30.665Z,9.65
2018-07-20T08:20:58.967Z,7.80
2018-07-20T08:23:27.212Z,9.78
2018-07-20T08:25:55.600Z,10.15
2018-07-20T08:28:23.879Z,9.33
2018-07-20T08:30:52.172Z,9.55
2018-07-20T08:33:20.477Z,9.60
2018-07-20T08:35:48.487Z,9.25
2018-07-20T08:38:16.766Z,10.18
2018-07-20T08:40:45.077Z,10.20
2018-07-20T08:43:13.355Z,9.60
2018-07-20T08:45:41.906Z,9.95
2018-07-20T08:48:10.209Z,9.78
2018-07-20T08:50:38.463Z,9.50
2018-07-20T08:53:06.749Z,9.65
2018-07-20T08:55:35.020Z,9.70
2018-07-20T08:58:03.219Z,8.25
2018-07-20T09:00:31.502Z,9.05
2018-07-20T09:02:59.761Z,9.10
2018-07-20T09:05:28.018Z,8.23
2018-07-20T09:07:56.296Z,8.18
2018-07-20T09:10:24.550Z,8.75
2018-07-20T09:12:53.520Z,7.53
2018-07-20T09:15:21.804Z,6.85
2018-07-20T09:17:50.027Z,6.28
2018-07-20T09:20:18.278Z,6.83
2018-07-20T09:22:46.556Z,6.10
2018-07-20T09:25:21.894Z,6.22
2018-07-20T09:27:50.183Z,6.22
2018-07-20T09:30:18.526Z,6.72
2018-07-20T09:32:46.852Z,6.45
2018-07-20T09:35:15.170Z,6.30
2018-07-20T09:37:43.444Z,5.53
2018-07-20T09:40:11.424Z,5.83
2018-07-20T09:42:39.708Z,5.47
2018-07-20T09:45:08.009Z,5.30
2018-07-20T09:47:36.312Z,5.47
2018-07-20T09:50:05.093Z,5.40
2018-07-20T09:52:33.549Z,5.00
2018-07-20T09:55:01.939Z,5.28
2018-07-20T09:57:31.122Z,5.50
2018-07-20T09:59:59.372Z,4.58
2018-07-20T10:02:27.707Z,4.92
2018-07-20T10:04:55.982Z,4.87
2018-07-20T10:07:24.506Z,5.05
2018-07-20T10:09:52.828Z,5.70
2018-07-20T10:12:21.138Z,4.67
2018-07-20T10:14:49.426Z,5.37
2018-07-20T10:17:17.692Z,4.62
2018-07-20T10:19:45.934Z,4.53
2018-07-20T10:22:14.220Z,4.62
2018-07-20T10:24:42.488Z,6.30
2018-07-20T10:29:38.329Z,3.85
2018-07-20T10:32:06.659Z,4.17
2018-07-20T10:34:34.949Z,4.08
2018-07-20T10:37:03.221Z,4.40
2018-07-20T10:39:31.505Z,3.58
2018-07-20T10:41:59.768Z,4.55
2018-07-20T10:44:28.035Z,3.87
2018-07-20T10:46:56.361Z,4.42
2018-07-20T10:49:24.600Z,3.62
2018-07-20T10:51:52.868Z,3.70
2018-07-20T10:54:21.129Z,4.50
2018-07-20T10:56:49.424Z,4.10
2018-07-20T10:59:17.703Z,4.17
2018-07-20T11:01:45.997Z,4.28
2018-07-20T11:04:14.257Z,3.90
2018-07-20T11:06:43.225Z,4.08
2018-07-20T11:09:11.532Z,4.12
2018-07-20T11:11:39.932Z,3.70
2018-07-20T11:14:08.914Z,3.77
2018-07-20T11:16:37.204Z,3.92
2018-07-20T11:19:05.590Z,3.90
2018-07-20T11:21:33.933Z,4.12
2018-07-20T11:24:02.228Z,3.85
2018-07-20T11:26:30.526Z,3.62
2018-07-20T11:28:58.779Z,3.80
2018-07-20T11:31:27.022Z,3.42
2018-07-20T11:33:55.275Z,3.58
2018-07-20T11:36:23.301Z,3.67
2018-07-20T11:38:51.602Z,3.50
2018-07-20T11:41:19.842Z,3.65
2018-07-20T11:43:48.086Z,3.65
2018-07-20T11:46:16.327Z,3.62
2018-07-20T11:48:44.597Z,3.62
2018-07-20T11:51:12.886Z,3.98
2018-07-20T11:53:41.144Z,3.47
2018-07-20T11:56:09.402Z,4.47
2018-07-20T11:58:37.783Z,5.62
2018-07-20T12:01:06.051Z,3.47
2018-07-20T12:03:34.341Z,3.58
2018-07-20T12:06:02.927Z,3.90
2018-07-20T12:08:31.237Z,3.80
2018-07-20T12:10:59.507Z,3.45
2018-07-20T12:13:27.797Z,3.52
2018-07-20T12:15:55.758Z,4.03
2018-07-20T12:18:24.062Z,5.72
2018-07-20T12:20:52.290Z,4.15
2018-07-20T12:23:20.617Z,3.95
2018-07-20T12:25:48.935Z,3.87
2018-07-20T12:28:17.224Z,4.33
2018-07-20T12:30:45.445Z,3.62
2018-07-20T12:33:13.741Z,4.15
2018-07-20T12:35:42.039Z,4.83
2018-07-20T12:38:10.315Z,4.58
2018-07-20T12:40:38.587Z,4.03
2018-07-20T12:43:06.854Z,4.20
2018-07-20T12:45:35.082Z,4.30
2018-07-20T12:48:03.336Z,3.95
2018-07-20T12:50:31.637Z,4.33
2018-07-20T12:52:59.883Z,4.33
2018-07-20T12:55:28.118Z,4.62
2018-07-20T12:57:56.440Z,4.22
2018-07-20T13:00:24.696Z,4.53
2018-07-20T13:02:52.981Z,3.90
2018-07-20T13:05:21.248Z,4.05
2018-07-20T13:07:49.546Z,4.35
2018-07-20T13:10:17.842Z,4.80
2018-07-20T13:12:46.081Z,3.95
2018-07-20T13:15:14.347Z,4.30
2018-07-20T13:17:42.643Z,4.20
2018-07-20T13:20:11.004Z,5.10
2018-07-20T13:22:39.273Z,4.65
2018-07-20T13:25:07.729Z,4.47
2018-07-20T13:27:36.030Z,4.45
2018-07-20T13:30:05.706Z,4.08
2018-07-20T13:32:33.954Z,4.15
2018-07-20T13:35:02.251Z,4.60
2018-07-20T13:37:30.246Z,4.67
2018-07-20T13:39:58.554Z,4.83
2018-07-20T13:42:27.232Z,4.37
2018-07-20T13:44:55.494Z,4.45
2018-07-20T13:47:23.795Z,3.80
2018-07-20T13:49:52.190Z,4.17
2018-07-20T13:52:20.503Z,4.60
2018-07-20T13:54:48.865Z,5.05
2018-07-20T13:57:17.177Z,4.83
2018-07-20T13:59:45.505Z,4.62
2018-07-20T14:02:13.786Z,4.70
2018-07-20T14:04:42.072Z,4.92
2018-07-20T14:07:10.356Z,5.25
2018-07-20T14:09:38.772Z,4.65
2018-07-20T14:12:07.457Z,4.60
2018-07-20T14:14:35.783Z,4.40
2018-07-20T14:17:04.329Z,4.85
2018-07-20T14:19:32.812Z,4.45
2018-07-20T14:22:01.056Z,4.55
2018-07-20T14:24:29.492Z,4.67
2018-07-20T14:26:57.828Z,4.40
2018-07-20T14:29:26.119Z,6.85
2018-07-20T14:31:54.492Z,5.33
2018-07-20T14:34:22.765Z,4.40
2018-07-20T14:36:51.376Z,5.15
2018-07-20T14:39:19.702Z,4.92
2018-07-20T14:41:48.092Z,4.85
2018-07-20T14:44:16.467Z,4.55
2018-07-20T14:46:44.769Z,4.55
2018-07-20T14:49:13.043Z,4.22
2018-07-20T14:51:41.435Z,5.42
2018-07-20T14:54:09.708Z,5.10
2018-07-20T14:56:37.994Z,4.85
2018-07-20T14:59:06.386Z,5.05
2018-07-20T15:01:34.715Z,5.47
2018-07-20T15:04:03.049Z,4.95
2018-07-20T15:06:31.428Z,5.20
2018-07-20T15:08:59.401Z,5.17
2018-07-20T15:11:27.378Z,5.28
2018-07-20T15:13:56.652Z,4.95
2018-07-20T15:16:24.892Z,4.72
2018-07-20T15:18:53.236Z,4.97
2018-07-20T15:21:21.456Z,5.72
2018-07-20T15:23:49.739Z,5.33
2018-07-20T15:26:18.392Z,5.12
2018-07-20T15:28:46.716Z,5.22
2018-07-20T15:31:15.069Z,6.55
2018-07-20T15:33:43.368Z,5.20
2018-07-20T15:36:11.656Z,5.53
2018-07-20T15:38:39.942Z,5.17
2018-07-20T15:41:08.044Z,5.40
2018-07-20T15:43:36.688Z,4.95
2018-07-20T15:46:06.317Z,4.97
2018-07-20T15:48:33.385Z,5.00
2018-07-20T15:51:01.639Z,4.50
2018-07-20T15:53:37.545Z,5.00
2018-07-20T15:55:58.544Z,5.85
2018-07-20T15:58:26.856Z,6.55
2018-07-20T16:00:55.112Z,6.83
2018-07-20T16:03:23.419Z,6.97
2018-07-20T16:05:51.518Z,11.75
2018-07-20T16:08:19.728Z,11.75
2018-07-20T16:10:48.024Z,7.70
2018-07-20T16:13:16.307Z,5.80
2018-07-20T16:15:44.677Z,5.45
2018-07-20T16:18:13.005Z,5.75
2018-07-20T16:20:41.284Z,5.90
2018-07-20T16:23:09.682Z,5.25
2018-07-20T16:25:38.575Z,5.30
2018-07-20T16:28:06.771Z,5.05
2018-07-20T16:30:35.068Z,5.30
2018-07-20T16:33:03.101Z,5.03
2018-07-20T16:35:31.364Z,4.58
2018-07-20T16:37:59.759Z,4.83
2018-07-20T16:40:28.056Z,5.10
2018-07-20T16:42:56.048Z,5.90
2018-07-20T16:45:24.343Z,5.28
2018-07-20T16:47:52.648Z,5.15
2018-07-20T16:50:20.989Z,4.85
2018-07-20T16:52:49.284Z,4.92
2018-07-20T16:55:17.606Z,5.47
2018-07-20T16:57:46.944Z,4.62
2018-07-20T17:00:15.253Z,6.20
2018-07-20T17:02:43.540Z,5.47
2018-07-20T17:05:11.925Z,6.40
2018-07-20T17:07:40.226Z,7.40
2018-07-20T17:10:08.451Z,5.42
2018-07-20T17:12:36.822Z,5.33
2018-07-20T17:15:05.468Z,5.40
2018-07-20T17:17:33.765Z,6.05
2018-07-20T17:20:02.226Z,5.30
2018-07-20T17:22:30.728Z,5.97
2018-07-20T17:24:58.905Z,7.67
2018-07-20T17:27:27.311Z,5.90
2018-07-20T17:29:55.613Z,8.28
2018-07-20T17:32:23.920Z,7.75
2018-07-20T17:34:52.258Z,6.92
2018-07-20T17:37:20.528Z,9.05
2018-07-20T17:39:48.807Z,5.37
2018-07-20T17:42:17.042Z,19.73
2018-07-20T17:44:45.308Z,5.35
2018-07-20T17:47:13.362Z,5.03
2018-07-20T17:49:41.346Z,11.60
2018-07-20T17:52:09.357Z,5.80
2018-07-20T17:54:37.603Z,5.83
2018-07-20T17:57:05.876Z,5.70
2018-07-20T17:59:33.855Z,6.03
2018-07-20T18:02:02.129Z,4.65
2018-07-20T18:04:30.604Z,5.30
2018-07-20T18:06:58.949Z,4.83
2018-07-20T18:09:27.414Z,4.92
2018-07-20T18:11:57.042Z,4.72
2018-07-20T18:14:25.969Z,4.92
2018-07-20T18:16:54.831Z,6.15
2018-07-20T18:19:23.274Z,5.00
2018-07-20T18:21:51.576Z,6.05
2018-07-20T18:24:20.194Z,5.25
2018-07-20T18:26:48.535Z,5.42
2018-07-20T18:29:16.746Z,5.40
2018-07-20T18:31:45.129Z,5.70
2018-07-20T18:34:13.509Z,5.75
2018-07-20T18:36:41.825Z,6.40
2018-07-20T18:39:11.490Z,5.78
2018-07-20T18:41:40.685Z,5.72
2018-07-20T18:44:09.173Z,5.80
2018-07-20T18:46:37.830Z,5.97
2018-07-20T18:49:05.864Z,5.85
2018-07-20T18:51:34.582Z,6.37
2018-07-20T18:54:02.871Z,7.30
2018-07-20T18:56:31.238Z,8.73
2018-07-20T18:58:59.502Z,6.10
2018-07-20T19:01:28.065Z,6.22
2018-07-20T19:03:56.359Z,5.92
2018-07-20T19:06:24.612Z,5.87
2018-07-20T19:08:52.912Z,5.40
2018-07-20T19:11:21.222Z,5.97
2018-07-20T19:13:49.480Z,7.08
2018-07-20T19:16:17.740Z,6.50
2018-07-20T19:18:46.585Z,6.75
2018-07-20T19:21:14.901Z,6.83
2018-07-20T19:23:43.235Z,6.65
2018-07-20T19:26:11.470Z,6.22
2018-07-20T19:28:39.769Z,6.37
2018-07-20T19:31:08.061Z,6.58
2018-07-20T19:33:36.404Z,7.35
2018-07-20T19:36:11.244Z,6.65
2018-07-20T19:38:39.538Z,7.00
2018-07-20T19:41:07.847Z,6.22
2018-07-20T19:43:36.644Z,6.97
2018-07-20T19:46:04.981Z,8.00
2018-07-20T19:48:33.374Z,7.45
2018-07-20T19:51:02.119Z,6.47
2018-07-20T19:53:30.112Z,6.65
2018-07-20T19:55:58.439Z,6.30
2018-07-20T19:58:26.801Z,7.28
2018-07-20T20:00:55.120Z,10.93
2018-07-20T20:03:23.647Z,6.90
2018-07-20T20:05:51.944Z,6.97
2018-07-20T20:08:21.206Z,6.58
2018-07-20T20:10:49.524Z,7.00
2018-07-20T20:13:17.828Z,6.42
2018-07-20T20:15:46.209Z,6.17
2018-07-20T20:18:15.180Z,6.62
2018-07-20T20:20:43.717Z,6.25
2018-07-20T20:23:12.024Z,6.40
2018-07-20T20:25:40.431Z,6.70
2018-07-20T20:28:08.687Z,6.53
2018-07-20T20:30:37.026Z,8.53
2018-07-20T20:33:05.258Z,7.92
2018-07-20T20:35:33.584Z,7.28
2018-07-20T20:38:01.813Z,7.75
2018-07-20T20:40:30.084Z,7.08
2018-07-20T20:42:58.419Z,7.95
2018-07-20T20:45:26.707Z,6.83
2018-07-20T20:47:55.017Z,8.10
2018-07-20T20:50:23.348Z,7.08
2018-07-20T20:52:51.552Z,7.70
2018-07-20T20:55:19.809Z,6.90
2018-07-20T20:57:48.085Z,6.83
2018-07-20T21:00:16.411Z,7.30
2018-07-20T21:02:44.777Z,6.95
2018-07-20T21:05:13.079Z,6.65
2018-07-20T21:07:41.397Z,6.60
2018-07-20T21:10:09.667Z,6.75
2018-07-20T21:12:38.008Z,6.60
2018-07-20T21:15:06.303Z,7.22
2018-07-20T21:17:34.574Z,7.70
2018-07-20T21:20:02.866Z,6.95
2018-07-20T21:22:31.155Z,6.95
2018-07-20T21:24:59.878Z,7.15
2018-07-20T21:27:28.096Z,7.50
2018-07-20T21:29:56.375Z,8.40
2018-07-20T21:32:24.983Z,8.05
2018-07-20T21:34:53.324Z,8.23
2018-07-20T21:37:21.660Z,8.33
2018-07-20T21:39:49.966Z,7.92
2018-07-20T21:42:18.309Z,7.65
2018-07-20T21:44:46.573Z,7.60
2018-07-20T21:47:14.892Z,7.58
2018-07-20T21:49:43.263Z,8.95
2018-07-20T21:52:11.743Z,8.80
2018-07-20T21:54:39.838Z,8.63
2018-07-20T21:57:08.101Z,8.65
2018-07-20T21:59:36.439Z,8.70
2018-07-20T22:02:04.680Z,8.28
2018-07-20T22:04:32.952Z,8.40
2018-07-20T22:07:01.255Z,8.88
2018-07-20T22:09:29.573Z,8.70
2018-07-20T22:11:58.903Z,8.53
2018-07-20T22:14:27.196Z,9.10
2018-07-20T22:16:55.488Z,9.15
2018-07-20T22:19:23.716Z,9.23
2018-07-20T22:21:51.771Z,8.93
2018-07-20T22:24:20.075Z,9.23
2018-07-20T22:26:48.351Z,8.48
2018-07-20T22:29:16.659Z,10.15
2018-07-20T22:31:44.955Z,8.53
2018-07-20T22:34:13.325Z,7.72
2018-07-20T22:36:41.600Z,7.67
2018-07-20T22:39:12.495Z,7.80
2018-07-20T22:41:41.226Z,7.08
2018-07-20T22:44:09.455Z,6.97
2018-07-20T22:46:37.765Z,7.37
2018-07-20T22:49:06.025Z,7.35
2018-07-20T22:51:34.332Z,6.42
2018-07-20T22:54:02.578Z,6.37
2018-07-20T22:56:30.837Z,6.47
2018-07-20T22:58:59.128Z,6.78
2018-07-20T23:01:27.437Z,6.22
2018-07-20T23:03:55.688Z,6.35
2018-07-20T23:06:23.947Z,6.30
2018-07-20T23:08:52.304Z,6.15
2018-07-20T23:11:20.556Z,6.00
2018-07-20T23:13:48.822Z,6.80
2018-07-20T23:16:17.219Z,6.45
2018-07-20T23:18:45.501Z,6.28
2018-07-20T23:21:13.773Z,6.40
2018-07-20T23:23:42.095Z,6.03
2018-07-20T23:26:10.407Z,6.00
2018-07-20T23:28:38.705Z,5.58
2018-07-20T23:31:06.939Z,6.53
2018-07-20T23:33:35.212Z,6.83
2018-07-20T23:36:03.515Z,7.03
2018-07-20T23:38:31.797Z,7.72
2018-07-20T23:41:00.058Z,6.97
2018-07-20T23:43:28.388Z,7.55
2018-07-20T23:45:56.609Z,7.58
2018-07-20T23:48:24.952Z,7.87
2018-07-20T23:50:53.240Z,7.47
2018-07-20T23:53:21.478Z,6.90
2018-07-20T23:55:50.007Z,7.35
2018-07-20T23:58:18.238Z,6.58
